Neptune Antlia — S6BE — position and weather

sailwx.info

Track history (hours):
 
Tides and Currents Weather Stations Pressure Air Temp Water Temp Dewpoint Dewpoint Depression Visibility Wind Speed Wind Dir Waves Ship Positions

Neptune Antlia

Last reported at 2014-Aug-30 16:22 UTC. Time now 2014-Sep-03 07:06 UTC.
Position N 36°38' W 000°51'.

Type: Cargo ship. MMSI: 563737000.

Date/timePositionNaut miles runAvg speedWind from/ knotsBaromVisibWave heightAir tempDewpointWater temp
2014-Aug-30 16:22N 36°38' W 000°51'5413.2
2014-Aug-30 12:17N 36°48' E 000°15'1013.0
2014-Aug-30 11:33N 36°50' E 000°27'1412.6
2014-Aug-30 10:27N 36°52' E 000°44'2713.2
2014-Aug-30 08:26N 36°58' E 001°17'1813.7
2014-Aug-30 07:07N 37°01' E 001°39'1213.2
2014-Aug-30 06:10N 37°03' E 001°54'1012.9
2014-Aug-30 05:24N 37°05' E 002°06'1112.9
2014-Aug-30 04:33N 37°07' E 002°20'1312.9
2014-Aug-30 03:33N 37°10' E 002°35'1312.8
2014-Aug-30 02:33N 37°13' E 002°51'1312.8
2014-Aug-30 01:33N 37°15' E 003°07'1512.7
2014-Aug-30 00:20N 37°18' E 003°26'1012.7
2014-Aug-29 23:33N 37°20' E 003°38'1712.9
2014-Aug-29 22:16N 37°22' E 003°59'1013.5
2014-Aug-29 21:33N 37°24' E 004°11'1413.7
2014-Aug-29 20:33N 37°27' E 004°28'1413.5
2014-Aug-29 19:31N 37°28' E 004°45'1313.4
2014-Aug-29 18:33N 37°29' E 005°01'1613.9
2014-Aug-29 17:26N 37°31' E 005°21'1314.7
2014-Aug-29 16:34N 37°32' E 005°37'1414.5
2014-Aug-29 15:33N 37°34' E 005°55'1414.2
2014-Aug-29 14:33N 37°35' E 006°13'1413.8
2014-Aug-29 13:33N 37°36' E 006°31'1313.3
2014-Aug-29 12:32N 37°36' E 006°48'1813.4
2014-Aug-29 11:14N 37°38' E 007°10'1013.1
2014-Aug-29 10:30N 37°40' E 007°22'1412.8
2014-Aug-29 09:26N 37°41' E 007°39'4112.8
2014-Aug-29 06:13N 37°44' E 008°30'2112.6
2014-Aug-29 04:33N 37°43' E 008°57'1312.2
2014-Aug-29 03:31N 37°42' E 009°13'1412.1
2014-Aug-29 02:22N 37°41' E 009°30'1012.0
2014-Aug-29 01:33N 37°40' E 009°42'1212.0
2014-Aug-29 00:34N 37°39' E 009°58'1211.9
2014-Aug-28 23:34N 37°39' E 010°13'1212.0
2014-Aug-28 22:33N 37°36' E 010°27'1212.4
2014-Aug-28 21:33N 37°34' E 010°43'1312.8
2014-Aug-28 20:33N 37°31' E 010°58'1313.1
2014-Aug-28 19:33N 37°25' E 011°13'1313.2
2014-Aug-28 18:33N 37°19' E 011°28'1313.0
2014-Aug-28 17:33N 37°13' E 011°42'1312.7
2014-Aug-28 16:34N 37°07' E 011°56'1313.0
2014-Aug-28 15:33N 37°03' E 012°12'1313.0
2014-Aug-28 14:34N 37°00' E 012°28'1312.7
2014-Aug-28 13:33N 36°57' E 012°43'1312.9
2014-Aug-28 12:33N 36°54' E 012°59'1312.8
2014-Aug-28 11:34N 36°51' E 013°14'1312.8
2014-Aug-28 10:33N 36°49' E 013°30'1313.3
2014-Aug-28 09:34N 36°47' E 013°46'1313.3
2014-Aug-28 08:34N 36°44' E 014°03'1313.0
2014-Aug-28 07:33N 36°41' E 014°19'1313.4
2014-Aug-28 06:33N 36°38' E 014°35'1313.1
2014-Aug-28 05:33N 36°36' E 014°51'  
2014-Aug-20 20:25N 38°60' E 015°16'1213.5
2014-Aug-20 19:33N 39°07' E 015°05'  
Track history (hours):
 
Tides and Currents Weather Stations Pressure Air Temp Water Temp Dewpoint Dewpoint Depression Visibility Wind Speed Wind Dir Waves Ship Positions

Neptune Antlia

Last reported at 2014-Aug-30 16:22 UTC. Time now 2014-Sep-03 07:06 UTC.
Position N 36°38' W 000°51'.

Type: Cargo ship. MMSI: 563737000.

Date/timePositionNaut miles runAvg speedWind from/ knotsBaromVisibWave heightAir tempDewpointWater temp
2014-Aug-30 16:22N 36°38' W 000°51'5413.2
2014-Aug-30 12:17N 36°48' E 000°15'1013.0
2014-Aug-30 11:33N 36°50' E 000°27'1412.6
2014-Aug-30 10:27N 36°52' E 000°44'2713.2
2014-Aug-30 08:26N 36°58' E 001°17'1813.7
2014-Aug-30 07:07N 37°01' E 001°39'1213.2
2014-Aug-30 06:10N 37°03' E 001°54'1012.9
2014-Aug-30 05:24N 37°05' E 002°06'1112.9
2014-Aug-30 04:33N 37°07' E 002°20'1312.9
2014-Aug-30 03:33N 37°10' E 002°35'1312.8
2014-Aug-30 02:33N 37°13' E 002°51'1312.8
2014-Aug-30 01:33N 37°15' E 003°07'1512.7
2014-Aug-30 00:20N 37°18' E 003°26'1012.7
2014-Aug-29 23:33N 37°20' E 003°38'1712.9
2014-Aug-29 22:16N 37°22' E 003°59'1013.5
2014-Aug-29 21:33N 37°24' E 004°11'1413.7
2014-Aug-29 20:33N 37°27' E 004°28'1413.5
2014-Aug-29 19:31N 37°28' E 004°45'1313.4
2014-Aug-29 18:33N 37°29' E 005°01'1613.9
2014-Aug-29 17:26N 37°31' E 005°21'1314.7
2014-Aug-29 16:34N 37°32' E 005°37'1414.5
2014-Aug-29 15:33N 37°34' E 005°55'1414.2
2014-Aug-29 14:33N 37°35' E 006°13'1413.8
2014-Aug-29 13:33N 37°36' E 006°31'1313.3
2014-Aug-29 12:32N 37°36' E 006°48'1813.4
2014-Aug-29 11:14N 37°38' E 007°10'1013.1
2014-Aug-29 10:30N 37°40' E 007°22'1412.8
2014-Aug-29 09:26N 37°41' E 007°39'4112.8
2014-Aug-29 06:13N 37°44' E 008°30'2112.6
2014-Aug-29 04:33N 37°43' E 008°57'1312.2
2014-Aug-29 03:31N 37°42' E 009°13'1412.1
2014-Aug-29 02:22N 37°41' E 009°30'1012.0
2014-Aug-29 01:33N 37°40' E 009°42'1212.0
2014-Aug-29 00:34N 37°39' E 009°58'1211.9
2014-Aug-28 23:34N 37°39' E 010°13'1212.0
2014-Aug-28 22:33N 37°36' E 010°27'1212.4
2014-Aug-28 21:33N 37°34' E 010°43'1312.8
2014-Aug-28 20:33N 37°31' E 010°58'1313.1
2014-Aug-28 19:33N 37°25' E 011°13'1313.2
2014-Aug-28 18:33N 37°19' E 011°28'1313.0
2014-Aug-28 17:33N 37°13' E 011°42'1312.7
2014-Aug-28 16:34N 37°07' E 011°56'1313.0
2014-Aug-28 15:33N 37°03' E 012°12'1313.0
2014-Aug-28 14:34N 37°00' E 012°28'1312.7
2014-Aug-28 13:33N 36°57' E 012°43'1312.9
2014-Aug-28 12:33N 36°54' E 012°59'1312.8
2014-Aug-28 11:34N 36°51' E 013°14'1312.8
2014-Aug-28 10:33N 36°49' E 013°30'1313.3
2014-Aug-28 09:34N 36°47' E 013°46'1313.3
2014-Aug-28 08:34N 36°44' E 014°03'1313.0
2014-Aug-28 07:33N 36°41' E 014°19'1313.4
2014-Aug-28 06:33N 36°38' E 014°35'1313.1
2014-Aug-28 05:33N 36°36' E 014°51'  
2014-Aug-20 20:25N 38°60' E 015°16'1213.5
2014-Aug-20 19:33N 39°07' E 015°05'  

Dump ship's entire track history